sensor_id;sensor_type;location;lat;lon;timestamp;temperature;humidity
48575;DHT22;34352;51.084;3.712;2022-09-17T00:02:07;12.30;64.10
48575;DHT22;34352;51.084;3.712;2022-09-17T00:04:34;11.90;65.70
48575;DHT22;34352;51.084;3.712;2022-09-17T00:07:01;12.90;63.70
48575;DHT22;34352;51.084;3.712;2022-09-17T00:09:28;11.80;67.00
48575;DHT22;34352;51.084;3.712;2022-09-17T00:11:56;11.60;66.20
48575;DHT22;34352;51.084;3.712;2022-09-17T00:14:23;12.90;67.90
48575;DHT22;34352;51.084;3.712;2022-09-17T00:16:48;11.60;67.90
48575;DHT22;34352;51.084;3.712;2022-09-17T00:19:17;12.20;69.70
48575;DHT22;34352;51.084;3.712;2022-09-17T00:21:48;11.90;71.20
48575;DHT22;34352;51.084;3.712;2022-09-17T00:24:18;11.80;71.40
48575;DHT22;34352;51.084;3.712;2022-09-17T00:26:48;11.70;71.70
48575;DHT22;34352;51.084;3.712;2022-09-17T00:29:14;12.00;69.60
48575;DHT22;34352;51.084;3.712;2022-09-17T00:31:41;11.80;70.80
48575;DHT22;34352;51.084;3.712;2022-09-17T00:34:08;12.60;70.50
48575;DHT22;34352;51.084;3.712;2022-09-17T00:36:36;12.40;70.60
48575;DHT22;34352;51.084;3.712;2022-09-17T00:39:05;12.50;70.20
48575;DHT22;34352;51.084;3.712;2022-09-17T00:41:34;12.80;69.20
48575;DHT22;34352;51.084;3.712;2022-09-17T00:44:37;11.70;68.70
48575;DHT22;34352;51.084;3.712;2022-09-17T00:47:31;11.70;69.90
48575;DHT22;34352;51.084;3.712;2022-09-17T00:50:11;10.60;70.20
48575;DHT22;34352;51.084;3.712;2022-09-17T00:53:07;11.80;68.90
48575;DHT22;34352;51.084;3.712;2022-09-17T00:55:39;11.80;71.40
48575;DHT22;34352;51.084;3.712;2022-09-17T00:58:26;11.80;70.70
48575;DHT22;34352;51.084;3.712;2022-09-17T01:00:54;11.90;69.60
48575;DHT22;34352;51.084;3.712;2022-09-17T01:03:22;12.10;69.00
48575;DHT22;34352;51.084;3.712;2022-09-17T01:09:11;11.90;72.80
48575;DHT22;34352;51.084;3.712;2022-09-17T01:14:46;12.00;72.50
48575;DHT22;34352;51.084;3.712;2022-09-17T01:25:58;12.10;71.10
48575;DHT22;34352;51.084;3.712;2022-09-17T01:31:39;12.10;70.10
48575;DHT22;34352;51.084;3.712;2022-09-17T01:34:17;12.10;70.40
48575;DHT22;34352;51.084;3.712;2022-09-17T01:39:55;12.00;68.60
48575;DHT22;34352;51.084;3.712;2022-09-17T01:47:55;11.80;64.60
48575;DHT22;34352;51.084;3.712;2022-09-17T01:50:32;11.70;65.10
48575;DHT22;34352;51.084;3.712;2022-09-17T01:53:04;11.50;67.00
48575;DHT22;34352;51.084;3.712;2022-09-17T01:55:37;11.30;68.00
48575;DHT22;34352;51.084;3.712;2022-09-17T01:58:25;11.20;69.50
48575;DHT22;34352;51.084;3.712;2022-09-17T02:00:57;11.30;70.40
48575;DHT22;34352;51.084;3.712;2022-09-17T02:03:27;11.10;71.20
48575;DHT22;34352;51.084;3.712;2022-09-17T02:06:19;11.20;70.80
48575;DHT22;34352;51.084;3.712;2022-09-17T02:08:51;11.00;71.40
48575;DHT22;34352;51.084;3.712;2022-09-17T02:11:22;10.90;71.40
48575;DHT22;34352;51.084;3.712;2022-09-17T02:13:59;11.10;71.50
48575;DHT22;34352;51.084;3.712;2022-09-17T02:16:36;10.90;71.00
48575;DHT22;34352;51.084;3.712;2022-09-17T02:19:21;11.10;71.40
48575;DHT22;34352;51.084;3.712;2022-09-17T02:22:16;10.90;71.40
48575;DHT22;34352;51.084;3.712;2022-09-17T02:27:38;11.00;69.50
48575;DHT22;34352;51.084;3.712;2022-09-17T02:30:08;10.90;69.50
48575;DHT22;34352;51.084;3.712;2022-09-17T02:32:36;10.90;67.70
48575;DHT22;34352;51.084;3.712;2022-09-17T02:35:04;10.90;66.30
48575;DHT22;34352;51.084;3.712;2022-09-17T02:37:34;10.80;69.30
48575;DHT22;34352;51.084;3.712;2022-09-17T02:40:04;10.80;68.00
48575;DHT22;34352;51.084;3.712;2022-09-17T02:46:00;9.60;69.50
48575;DHT22;34352;51.084;3.712;2022-09-17T02:57:42;10.60;72.80
48575;DHT22;34352;51.084;3.712;2022-09-17T03:00:34;10.60;74.20
48575;DHT22;34352;51.084;3.712;2022-09-17T03:03:33;10.30;75.10
48575;DHT22;34352;51.084;3.712;2022-09-17T03:06:08;10.70;75.10
48575;DHT22;34352;51.084;3.712;2022-09-17T03:08:43;9.60;71.40
48575;DHT22;34352;51.084;3.712;2022-09-17T03:11:13;11.00;74.00
48575;DHT22;34352;51.084;3.712;2022-09-17T03:13:40;11.00;71.70
48575;DHT22;34352;51.084;3.712;2022-09-17T03:16:07;11.20;71.00
48575;DHT22;34352;51.084;3.712;2022-09-17T03:18:40;10.40;70.80
48575;DHT22;34352;51.084;3.712;2022-09-17T03:21:07;11.00;72.50
48575;DHT22;34352;51.084;3.712;2022-09-17T03:23:40;11.10;72.70
48575;DHT22;34352;51.084;3.712;2022-09-17T03:26:06;11.10;74.30
48575;DHT22;34352;51.084;3.712;2022-09-17T03:28:32;10.90;72.50
48575;DHT22;34352;51.084;3.712;2022-09-17T03:30:59;11.10;72.10
48575;DHT22;34352;51.084;3.712;2022-09-17T03:33:26;11.10;71.20
48575;DHT22;34352;51.084;3.712;2022-09-17T03:35:57;11.20;71.60
48575;DHT22;34352;51.084;3.712;2022-09-17T03:38:25;11.50;71.30
48575;DHT22;34352;51.084;3.712;2022-09-17T03:41:03;11.30;72.20
48575;DHT22;34352;51.084;3.712;2022-09-17T03:43:30;11.40;70.50
48575;DHT22;34352;51.084;3.712;2022-09-17T03:45:57;11.40;70.60
48575;DHT22;34352;51.084;3.712;2022-09-17T03:48:28;11.40;71.50
48575;DHT22;34352;51.084;3.712;2022-09-17T03:50:54;11.50;72.20
48575;DHT22;34352;51.084;3.712;2022-09-17T03:53:22;11.50;71.70
48575;DHT22;34352;51.084;3.712;2022-09-17T03:55:49;11.40;71.70
48575;DHT22;34352;51.084;3.712;2022-09-17T03:58:15;11.50;70.70
48575;DHT22;34352;51.084;3.712;2022-09-17T04:00:44;11.50;69.00
48575;DHT22;34352;51.084;3.712;2022-09-17T04:03:10;11.50;67.70
48575;DHT22;34352;51.084;3.712;2022-09-17T04:05:37;11.60;66.00
48575;DHT22;34352;51.084;3.712;2022-09-17T04:08:07;11.50;66.80
48575;DHT22;34352;51.084;3.712;2022-09-17T04:10:33;11.40;64.80
48575;DHT22;34352;51.084;3.712;2022-09-17T04:13:05;11.40;65.80
48575;DHT22;34352;51.084;3.712;2022-09-17T04:15:31;11.30;68.00
48575;DHT22;34352;51.084;3.712;2022-09-17T04:17:57;11.70;66.00
48575;DHT22;34352;51.084;3.712;2022-09-17T04:20:26;11.30;66.80
48575;DHT22;34352;51.084;3.712;2022-09-17T04:22:52;11.30;67.20
48575;DHT22;34352;51.084;3.712;2022-09-17T04:25:18;11.30;66.90
48575;DHT22;34352;51.084;3.712;2022-09-17T04:27:52;11.20;68.20
48575;DHT22;34352;51.084;3.712;2022-09-17T04:30:22;11.30;69.20
48575;DHT22;34352;51.084;3.712;2022-09-17T04:32:48;11.30;68.90
48575;DHT22;34352;51.084;3.712;2022-09-17T04:35:22;11.20;69.90
48575;DHT22;34352;51.084;3.712;2022-09-17T04:37:57;11.70;71.80
48575;DHT22;34352;51.084;3.712;2022-09-17T04:40:26;11.30;71.30
48575;DHT22;34352;51.084;3.712;2022-09-17T04:42:57;11.60;70.50
48575;DHT22;34352;51.084;3.712;2022-09-17T04:45:29;11.70;68.30
48575;DHT22;34352;51.084;3.712;2022-09-17T04:47:59;11.60;66.20
48575;DHT22;34352;51.084;3.712;2022-09-17T04:50:26;11.50;67.20
48575;DHT22;34352;51.084;3.712;2022-09-17T04:52:52;11.40;66.60
48575;DHT22;34352;51.084;3.712;2022-09-17T04:55:17;11.40;66.20
48575;DHT22;34352;51.084;3.712;2022-09-17T04:57:51;11.40;66.00
48575;DHT22;34352;51.084;3.712;2022-09-17T05:00:18;11.30;65.60
48575;DHT22;34352;51.084;3.712;2022-09-17T05:02:46;11.20;66.50
48575;DHT22;34352;51.084;3.712;2022-09-17T05:05:13;11.30;67.70
48575;DHT22;34352;51.084;3.712;2022-09-17T05:07:40;11.10;69.30
48575;DHT22;34352;51.084;3.712;2022-09-17T05:10:07;11.00;70.30
48575;DHT22;34352;51.084;3.712;2022-09-17T05:12:52;11.10;71.10
48575;DHT22;34352;51.084;3.712;2022-09-17T05:15:22;11.20;71.60
48575;DHT22;34352;51.084;3.712;2022-09-17T05:17:49;11.20;71.10
48575;DHT22;34352;51.084;3.712;2022-09-17T05:20:21;11.30;70.60
48575;DHT22;34352;51.084;3.712;2022-09-17T05:22:50;11.30;70.50
48575;DHT22;34352;51.084;3.712;2022-09-17T05:25:18;11.40;70.90
48575;DHT22;34352;51.084;3.712;2022-09-17T05:27:49;11.40;71.40
48575;DHT22;34352;51.084;3.712;2022-09-17T05:30:17;11.90;70.60
48575;DHT22;34352;51.084;3.712;2022-09-17T05:32:45;11.40;67.80
48575;DHT22;34352;51.084;3.712;2022-09-17T05:35:19;10.60;68.40
48575;DHT22;34352;51.084;3.712;2022-09-17T05:37:57;11.40;68.40
48575;DHT22;34352;51.084;3.712;2022-09-17T05:40:26;11.40;70.80
48575;DHT22;34352;51.084;3.712;2022-09-17T05:42:57;11.40;72.30
48575;DHT22;34352;51.084;3.712;2022-09-17T05:45:29;11.50;72.30
48575;DHT22;34352;51.084;3.712;2022-09-17T05:48:02;11.60;69.50
48575;DHT22;34352;51.084;3.712;2022-09-17T05:50:30;11.60;69.20
48575;DHT22;34352;51.084;3.712;2022-09-17T05:53:10;11.70;67.50
48575;DHT22;34352;51.084;3.712;2022-09-17T05:59:14;11.00;67.70
48575;DHT22;34352;51.084;3.712;2022-09-17T06:02:11;11.60;68.50
48575;DHT22;34352;51.084;3.712;2022-09-17T06:05:00;11.60;67.20
48575;DHT22;34352;51.084;3.712;2022-09-17T06:07:54;11.50;67.00
48575;DHT22;34352;51.084;3.712;2022-09-17T06:19:52;11.40;67.90
48575;DHT22;34352;51.084;3.712;2022-09-17T06:22:45;11.40;68.80
48575;DHT22;34352;51.084;3.712;2022-09-17T06:28:10;10.40;69.20
48575;DHT22;34352;51.084;3.712;2022-09-17T06:30:35;11.50;70.20
48575;DHT22;34352;51.084;3.712;2022-09-17T06:33:01;12.80;72.40
48575;DHT22;34352;51.084;3.712;2022-09-17T06:35:27;11.70;73.30
48575;DHT22;34352;51.084;3.712;2022-09-17T06:37:53;11.80;73.30
48575;DHT22;34352;51.084;3.712;2022-09-17T06:40:18;12.00;72.70
48575;DHT22;34352;51.084;3.712;2022-09-17T06:42:45;12.20;70.10
48575;DHT22;34352;51.084;3.712;2022-09-17T06:45:10;12.30;67.80
48575;DHT22;34352;51.084;3.712;2022-09-17T06:47:38;12.40;69.90
48575;DHT22;34352;51.084;3.712;2022-09-17T06:50:04;12.70;70.10
48575;DHT22;34352;51.084;3.712;2022-09-17T06:52:30;12.70;69.50
48575;DHT22;34352;51.084;3.712;2022-09-17T06:54:57;12.80;66.80
48575;DHT22;34352;51.084;3.712;2022-09-17T06:57:23;12.80;65.60
48575;DHT22;34352;51.084;3.712;2022-09-17T06:59:48;12.80;61.60
48575;DHT22;34352;51.084;3.712;2022-09-17T07:02:15;12.80;60.60
48575;DHT22;34352;51.084;3.712;2022-09-17T07:04:41;12.70;60.60
48575;DHT22;34352;51.084;3.712;2022-09-17T07:07:13;12.50;60.40
48575;DHT22;34352;51.084;3.712;2022-09-17T07:09:38;12.40;61.20
48575;DHT22;34352;51.084;3.712;2022-09-17T07:12:06;12.40;61.00
48575;DHT22;34352;51.084;3.712;2022-09-17T07:14:35;12.50;62.80
48575;DHT22;34352;51.084;3.712;2022-09-17T07:17:00;12.60;64.00
48575;DHT22;34352;51.084;3.712;2022-09-17T07:19:27;13.20;63.40
48575;DHT22;34352;51.084;3.712;2022-09-17T07:21:56;14.00;54.40
48575;DHT22;34352;51.084;3.712;2022-09-17T07:24:21;15.50;41.40
48575;DHT22;34352;51.084;3.712;2022-09-17T07:26:48;14.40;24.50
48575;DHT22;34352;51.084;3.712;2022-09-17T07:29:14;14.20;21.60
48575;DHT22;34352;51.084;3.712;2022-09-17T07:31:40;15.10;23.70
48575;DHT22;34352;51.084;3.712;2022-09-17T07:34:09;13.50;30.70
48575;DHT22;34352;51.084;3.712;2022-09-17T07:36:37;13.10;36.80
48575;DHT22;34352;51.084;3.712;2022-09-17T07:39:03;12.80;42.50
48575;DHT22;34352;51.084;3.712;2022-09-17T07:41:31;12.70;46.10
48575;DHT22;34352;51.084;3.712;2022-09-17T07:44:01;12.70;47.30
48575;DHT22;34352;51.084;3.712;2022-09-17T07:46:27;12.70;50.20
48575;DHT22;34352;51.084;3.712;2022-09-17T07:49:01;13.10;55.90
48575;DHT22;34352;51.084;3.712;2022-09-17T07:51:27;14.50;50.70
48575;DHT22;34352;51.084;3.712;2022-09-17T07:53:57;15.10;17.70
48575;DHT22;34352;51.084;3.712;2022-09-17T07:56:25;16.30;1.00
48575;DHT22;34352;51.084;3.712;2022-09-17T07:58:56;17.30;1.00
48575;DHT22;34352;51.084;3.712;2022-09-17T08:01:23;17.90;1.00
48575;DHT22;34352;51.084;3.712;2022-09-17T08:03:51;18.00;1.00
48575;DHT22;34352;51.084;3.712;2022-09-17T08:06:23;17.80;1.00
48575;DHT22;34352;51.084;3.712;2022-09-17T08:08:58;18.00;1.00
48575;DHT22;34352;51.084;3.712;2022-09-17T08:11:26;17.80;1.00
48575;DHT22;34352;51.084;3.712;2022-09-17T08:13:53;17.60;1.00
48575;DHT22;34352;51.084;3.712;2022-09-17T08:16:20;17.50;1.00
48575;DHT22;34352;51.084;3.712;2022-09-17T08:18:48;17.70;1.00
48575;DHT22;34352;51.084;3.712;2022-09-17T08:21:17;17.10;1.00
48575;DHT22;34352;51.084;3.712;2022-09-17T08:23:49;18.80;1.00
48575;DHT22;34352;51.084;3.712;2022-09-17T08:26:19;20.10;1.00
48575;DHT22;34352;51.084;3.712;2022-09-17T08:28:49;20.70;1.00
48575;DHT22;34352;51.084;3.712;2022-09-17T08:31:17;21.20;1.00
48575;DHT22;34352;51.084;3.712;2022-09-17T08:33:46;21.30;99.90
48575;DHT22;34352;51.084;3.712;2022-09-17T08:36:13;20.90;99.90
48575;DHT22;34352;51.084;3.712;2022-09-17T08:38:45;20.00;99.90
48575;DHT22;34352;51.084;3.712;2022-09-17T08:46:44;19.90;1.00
48575;DHT22;34352;51.084;3.712;2022-09-17T08:49:31;19.50;1.00
48575;DHT22;34352;51.084;3.712;2022-09-17T08:52:06;18.90;1.00
48575;DHT22;34352;51.084;3.712;2022-09-17T08:54:43;18.20;1.00
48575;DHT22;34352;51.084;3.712;2022-09-17T09:00:18;17.20;1.00
48575;DHT22;34352;51.084;3.712;2022-09-17T09:03:12;16.50;1.00
48575;DHT22;34352;51.084;3.712;2022-09-17T09:05:50;16.10;1.00
48575;DHT22;34352;51.084;3.712;2022-09-17T09:11:10;15.40;1.00
48575;DHT22;34352;51.084;3.712;2022-09-17T09:13:45;15.00;1.00
48575;DHT22;34352;51.084;3.712;2022-09-17T09:16:21;14.70;1.00
48575;DHT22;34352;51.084;3.712;2022-09-17T09:18:53;14.50;1.00
48575;DHT22;34352;51.084;3.712;2022-09-17T09:21:30;14.30;12.20
48575;DHT22;34352;51.084;3.712;2022-09-17T09:33:16;13.80;25.60
48575;DHT22;34352;51.084;3.712;2022-09-17T09:38:06;13.80;33.70
48575;DHT22;34352;51.084;3.712;2022-09-17T09:40:45;13.60;35.90
48575;DHT22;34352;51.084;3.712;2022-09-17T09:49:07;13.60;43.90
48575;DHT22;34352;51.084;3.712;2022-09-17T09:51:56;13.60;47.60
48575;DHT22;34352;51.084;3.712;2022-09-17T09:57:29;13.80;48.10
48575;DHT22;34352;51.084;3.712;2022-09-17T10:03:19;14.20;51.60
48575;DHT22;34352;51.084;3.712;2022-09-17T10:08:31;15.60;42.70
48575;DHT22;34352;51.084;3.712;2022-09-17T10:13:34;16.30;8.80
48575;DHT22;34352;51.084;3.712;2022-09-17T10:16:28;16.10;1.00
48575;DHT22;34352;51.084;3.712;2022-09-17T10:21:38;15.50;1.00
48575;DHT22;34352;51.084;3.712;2022-09-17T10:24:21;15.10;13.50
48575;DHT22;34352;51.084;3.712;2022-09-17T10:26:48;15.00;16.70
48575;DHT22;34352;51.084;3.712;2022-09-17T10:29:21;15.10;34.10
48575;DHT22;34352;51.084;3.712;2022-09-17T10:31:54;16.40;49.30
48575;DHT22;34352;51.084;3.712;2022-09-17T10:34:30;17.30;16.10
48575;DHT22;34352;51.084;3.712;2022-09-17T10:36:58;17.50;1.00
48575;DHT22;34352;51.084;3.712;2022-09-17T10:39:38;17.40;1.00
48575;DHT22;34352;51.084;3.712;2022-09-17T10:42:17;17.10;1.00
48575;DHT22;34352;51.084;3.712;2022-09-17T10:44:54;16.60;1.00
48575;DHT22;34352;51.084;3.712;2022-09-17T10:47:27;16.20;1.00
48575;DHT22;34352;51.084;3.712;2022-09-17T10:52:39;16.20;1.00
48575;DHT22;34352;51.084;3.712;2022-09-17T10:55:32;16.30;1.00
48575;DHT22;34352;51.084;3.712;2022-09-17T11:01:09;17.40;1.00
48575;DHT22;34352;51.084;3.712;2022-09-17T11:09:29;22.60;1.00
48575;DHT22;34352;51.084;3.712;2022-09-17T11:31:44;24.20;1.00
48575;DHT22;34352;51.084;3.712;2022-09-17T11:34:21;22.90;1.00
48575;DHT22;34352;51.084;3.712;2022-09-17T11:37:05;22.70;1.00
48575;DHT22;34352;51.084;3.712;2022-09-17T11:39:45;23.50;1.00
48575;DHT22;34352;51.084;3.712;2022-09-17T11:42:20;24.40;1.00
48575;DHT22;34352;51.084;3.712;2022-09-17T11:45:15;24.60;1.00
48575;DHT22;34352;51.084;3.712;2022-09-17T11:47:57;25.60;1.00
48575;DHT22;34352;51.084;3.712;2022-09-17T11:50:28;27.00;1.00
48575;DHT22;34352;51.084;3.712;2022-09-17T11:56:01;26.90;1.00
48575;DHT22;34352;51.084;3.712;2022-09-17T11:58:42;26.10;1.00
48575;DHT22;34352;51.084;3.712;2022-09-17T12:01:13;25.60;1.00
48575;DHT22;34352;51.084;3.712;2022-09-17T12:03:54;24.60;1.00
48575;DHT22;34352;51.084;3.712;2022-09-17T12:06:45;23.80;1.00
48575;DHT22;34352;51.084;3.712;2022-09-17T12:09:18;24.20;1.00
48575;DHT22;34352;51.084;3.712;2022-09-17T12:17:32;26.00;1.00
48575;DHT22;34352;51.084;3.712;2022-09-17T12:20:06;26.30;1.00
48575;DHT22;34352;51.084;3.712;2022-09-17T12:22:38;25.50;1.00
48575;DHT22;34352;51.084;3.712;2022-09-17T12:25:11;25.30;1.00
48575;DHT22;34352;51.084;3.712;2022-09-17T12:28:40;25.50;1.00
48575;DHT22;34352;51.084;3.712;2022-09-17T12:30:53;25.80;1.00
48575;DHT22;34352;51.084;3.712;2022-09-17T12:33:25;26.00;1.00
48575;DHT22;34352;51.084;3.712;2022-09-17T12:45:07;25.60;1.00
48575;DHT22;34352;51.084;3.712;2022-09-17T12:53:36;25.80;1.00
48575;DHT22;34352;51.084;3.712;2022-09-17T12:56:21;23.80;1.00
48575;DHT22;34352;51.084;3.712;2022-09-17T13:01:54;20.30;1.00
48575;DHT22;34352;51.084;3.712;2022-09-17T13:16:08;24.50;1.00
48575;DHT22;34352;51.084;3.712;2022-09-17T13:21:34;24.20;1.00
48575;DHT22;34352;51.084;3.712;2022-09-17T13:24:17;23.00;1.00
48575;DHT22;34352;51.084;3.712;2022-09-17T13:26:44;22.10;1.00
48575;DHT22;34352;51.084;3.712;2022-09-17T13:40:24;19.30;1.00
48575;DHT22;34352;51.084;3.712;2022-09-17T13:45:27;19.10;1.00
48575;DHT22;34352;51.084;3.712;2022-09-17T13:47:57;19.40;1.00
48575;DHT22;34352;51.084;3.712;2022-09-17T13:53:38;20.20;1.00
48575;DHT22;34352;51.084;3.712;2022-09-17T13:58:23;22.10;1.00
48575;DHT22;34352;51.084;3.712;2022-09-17T14:01:02;23.10;1.00
48575;DHT22;34352;51.084;3.712;2022-09-17T14:21:59;17.40;1.00
48575;DHT22;34352;51.084;3.712;2022-09-17T14:24:48;17.10;1.00
48575;DHT22;34352;51.084;3.712;2022-09-17T14:30:19;16.80;1.00
48575;DHT22;34352;51.084;3.712;2022-09-17T14:33:07;16.80;1.00
48575;DHT22;34352;51.084;3.712;2022-09-17T14:35:50;16.80;1.00
48575;DHT22;34352;51.084;3.712;2022-09-17T14:38:37;16.80;1.00
48575;DHT22;34352;51.084;3.712;2022-09-17T14:43:59;18.20;1.00
48575;DHT22;34352;51.084;3.712;2022-09-17T14:46:30;18.60;1.00
48575;DHT22;34352;51.084;3.712;2022-09-17T14:51:45;17.80;1.00
48575;DHT22;34352;51.084;3.712;2022-09-17T14:54:17;17.50;1.00
48575;DHT22;34352;51.084;3.712;2022-09-17T14:57:01;17.40;1.00
48575;DHT22;34352;51.084;3.712;2022-09-17T14:59:31;17.20;1.00
48575;DHT22;34352;51.084;3.712;2022-09-17T15:02:00;16.90;1.00
48575;DHT22;34352;51.084;3.712;2022-09-17T15:04:27;16.70;1.00
48575;DHT22;34352;51.084;3.712;2022-09-17T15:07:06;16.60;1.00
48575;DHT22;34352;51.084;3.712;2022-09-17T15:09:31;16.50;1.00
48575;DHT22;34352;51.084;3.712;2022-09-17T15:11:59;16.50;1.00
48575;DHT22;34352;51.084;3.712;2022-09-17T15:14:30;16.60;1.00
48575;DHT22;34352;51.084;3.712;2022-09-17T15:16:58;16.60;1.00
48575;DHT22;34352;51.084;3.712;2022-09-17T15:19:37;16.50;1.00
48575;DHT22;34352;51.084;3.712;2022-09-17T15:22:31;16.20;1.00
48575;DHT22;34352;51.084;3.712;2022-09-17T15:25:13;15.90;1.00
48575;DHT22;34352;51.084;3.712;2022-09-17T15:27:44;15.70;1.00
48575;DHT22;34352;51.084;3.712;2022-09-17T15:30:14;15.60;1.00
48575;DHT22;34352;51.084;3.712;2022-09-17T15:32:57;15.50;1.00
48575;DHT22;34352;51.084;3.712;2022-09-17T15:35:29;15.30;1.00
48575;DHT22;34352;51.084;3.712;2022-09-17T15:41:33;15.20;1.00
48575;DHT22;34352;51.084;3.712;2022-09-17T15:44:34;15.10;1.00
48575;DHT22;34352;51.084;3.712;2022-09-17T15:47:35;15.10;1.00
48575;DHT22;34352;51.084;3.712;2022-09-17T15:50:22;15.10;1.00
48575;DHT22;34352;51.084;3.712;2022-09-17T15:52:49;15.30;1.00
48575;DHT22;34352;51.084;3.712;2022-09-17T15:55:32;15.40;1.00
48575;DHT22;34352;51.084;3.712;2022-09-17T15:58:23;15.30;1.00
48575;DHT22;34352;51.084;3.712;2022-09-17T16:08:45;15.00;1.00
48575;DHT22;34352;51.084;3.712;2022-09-17T16:11:20;14.90;9.10
48575;DHT22;34352;51.084;3.712;2022-09-17T16:13:47;14.90;9.30
48575;DHT22;34352;51.084;3.712;2022-09-17T16:16:21;15.00;10.50
48575;DHT22;34352;51.084;3.712;2022-09-17T16:18:51;14.90;13.60
48575;DHT22;34352;51.084;3.712;2022-09-17T16:21:18;14.90;17.40
48575;DHT22;34352;51.084;3.712;2022-09-17T16:23:44;14.90;24.50
48575;DHT22;34352;51.084;3.712;2022-09-17T16:26:16;15.00;23.00
48575;DHT22;34352;51.084;3.712;2022-09-17T16:28:43;14.90;24.40
48575;DHT22;34352;51.084;3.712;2022-09-17T16:31:12;15.00;21.70
48575;DHT22;34352;51.084;3.712;2022-09-17T16:33:38;15.20;21.70
48575;DHT22;34352;51.084;3.712;2022-09-17T16:36:15;15.20;17.80
48575;DHT22;34352;51.084;3.712;2022-09-17T16:38:43;15.20;18.00
48575;DHT22;34352;51.084;3.712;2022-09-17T16:41:09;15.20;25.70
48575;DHT22;34352;51.084;3.712;2022-09-17T16:43:42;15.30;28.30
48575;DHT22;34352;51.084;3.712;2022-09-17T16:46:09;15.40;27.80
48575;DHT22;34352;51.084;3.712;2022-09-17T16:48:36;15.50;16.20
48575;DHT22;34352;51.084;3.712;2022-09-17T16:51:11;15.40;14.40
48575;DHT22;34352;51.084;3.712;2022-09-17T16:53:37;15.10;15.60
48575;DHT22;34352;51.084;3.712;2022-09-17T16:56:07;14.90;5.10
48575;DHT22;34352;51.084;3.712;2022-09-17T16:58:39;14.70;10.80
48575;DHT22;34352;51.084;3.712;2022-09-17T17:01:10;14.70;13.50
48575;DHT22;34352;51.084;3.712;2022-09-17T17:03:36;14.90;9.10
48575;DHT22;34352;51.084;3.712;2022-09-17T17:06:02;14.70;7.00
48575;DHT22;34352;51.084;3.712;2022-09-17T17:08:30;14.70;10.40
48575;DHT22;34352;51.084;3.712;2022-09-17T17:10:57;14.70;2.20
48575;DHT22;34352;51.084;3.712;2022-09-17T17:13:23;14.50;8.90
48575;DHT22;34352;51.084;3.712;2022-09-17T17:15:51;14.40;14.70
48575;DHT22;34352;51.084;3.712;2022-09-17T17:18:19;14.30;18.80
48575;DHT22;34352;51.084;3.712;2022-09-17T17:20:46;14.10;21.30
48575;DHT22;34352;51.084;3.712;2022-09-17T17:23:13;14.10;24.50
48575;DHT22;34352;51.084;3.712;2022-09-17T17:25:39;14.10;24.90
48575;DHT22;34352;51.084;3.712;2022-09-17T17:28:04;14.00;28.20
48575;DHT22;34352;51.084;3.712;2022-09-17T17:30:30;13.90;33.70
48575;DHT22;34352;51.084;3.712;2022-09-17T17:33:00;13.80;36.10
48575;DHT22;34352;51.084;3.712;2022-09-17T17:35:28;13.90;37.70
48575;DHT22;34352;51.084;3.712;2022-09-17T17:37:54;13.80;36.90
48575;DHT22;34352;51.084;3.712;2022-09-17T17:40:21;13.80;35.30
48575;DHT22;34352;51.084;3.712;2022-09-17T17:42:51;13.90;37.60
48575;DHT22;34352;51.084;3.712;2022-09-17T17:45:17;13.70;37.40
48575;DHT22;34352;51.084;3.712;2022-09-17T17:47:43;13.70;37.60
48575;DHT22;34352;51.084;3.712;2022-09-17T17:50:09;13.60;37.20
48575;DHT22;34352;51.084;3.712;2022-09-17T17:52:54;13.60;37.20
48575;DHT22;34352;51.084;3.712;2022-09-17T17:55:20;13.60;33.60
48575;DHT22;34352;51.084;3.712;2022-09-17T17:57:46;13.50;32.90
48575;DHT22;34352;51.084;3.712;2022-09-17T18:00:12;13.50;34.30
48575;DHT22;34352;51.084;3.712;2022-09-17T18:02:40;13.30;37.60
48575;DHT22;34352;51.084;3.712;2022-09-17T18:05:06;13.30;39.80
48575;DHT22;34352;51.084;3.712;2022-09-17T18:07:31;13.20;37.40
48575;DHT22;34352;51.084;3.712;2022-09-17T18:09:58;13.20;40.40
48575;DHT22;34352;51.084;3.712;2022-09-17T18:12:24;13.20;39.70
48575;DHT22;34352;51.084;3.712;2022-09-17T18:14:51;13.20;38.80
48575;DHT22;34352;51.084;3.712;2022-09-17T18:17:18;13.30;36.00
48575;DHT22;34352;51.084;3.712;2022-09-17T18:19:44;13.30;37.70
48575;DHT22;34352;51.084;3.712;2022-09-17T18:22:10;14.40;38.90
48575;DHT22;34352;51.084;3.712;2022-09-17T18:24:36;13.30;38.40
48575;DHT22;34352;51.084;3.712;2022-09-17T18:27:01;13.30;32.80
48575;DHT22;34352;51.084;3.712;2022-09-17T18:29:28;13.30;32.90
48575;DHT22;34352;51.084;3.712;2022-09-17T18:31:53;13.30;31.30
48575;DHT22;34352;51.084;3.712;2022-09-17T18:34:19;13.20;32.30
48575;DHT22;34352;51.084;3.712;2022-09-17T18:36:45;13.20;32.80
48575;DHT22;34352;51.084;3.712;2022-09-17T18:39:12;13.20;34.90
48575;DHT22;34352;51.084;3.712;2022-09-17T18:41:40;14.00;38.00
48575;DHT22;34352;51.084;3.712;2022-09-17T18:44:07;13.30;35.00
48575;DHT22;34352;51.084;3.712;2022-09-17T18:46:33;13.30;28.30
48575;DHT22;34352;51.084;3.712;2022-09-17T18:48:59;13.40;23.60
48575;DHT22;34352;51.084;3.712;2022-09-17T18:51:26;13.30;24.80
48575;DHT22;34352;51.084;3.712;2022-09-17T18:53:58;13.20;24.80
48575;DHT22;34352;51.084;3.712;2022-09-17T18:56:30;13.20;25.50
48575;DHT22;34352;51.084;3.712;2022-09-17T18:58:58;13.10;24.60
48575;DHT22;34352;51.084;3.712;2022-09-17T19:01:26;13.00;26.60
48575;DHT22;34352;51.084;3.712;2022-09-17T19:03:53;13.00;29.40
48575;DHT22;34352;51.084;3.712;2022-09-17T19:06:18;13.00;29.80
48575;DHT22;34352;51.084;3.712;2022-09-17T19:08:45;13.10;28.90
48575;DHT22;34352;51.084;3.712;2022-09-17T19:11:11;13.20;27.00
48575;DHT22;34352;51.084;3.712;2022-09-17T19:13:39;13.30;25.40
48575;DHT22;34352;51.084;3.712;2022-09-17T19:16:06;13.40;24.90
48575;DHT22;34352;51.084;3.712;2022-09-17T19:18:33;13.40;26.50
48575;DHT22;34352;51.084;3.712;2022-09-17T19:21:18;13.40;27.30
48575;DHT22;34352;51.084;3.712;2022-09-17T19:23:50;14.10;26.30
48575;DHT22;34352;51.084;3.712;2022-09-17T19:26:24;13.40;18.90
48575;DHT22;34352;51.084;3.712;2022-09-17T19:28:55;13.30;16.30
48575;DHT22;34352;51.084;3.712;2022-09-17T19:31:28;13.20;13.80
48575;DHT22;34352;51.084;3.712;2022-09-17T19:33:55;13.10;16.10
48575;DHT22;34352;51.084;3.712;2022-09-17T19:36:21;13.10;14.80
48575;DHT22;34352;51.084;3.712;2022-09-17T19:38:47;13.10;16.20
48575;DHT22;34352;51.084;3.712;2022-09-17T19:41:18;13.30;17.10
48575;DHT22;34352;51.084;3.712;2022-09-17T19:43:55;13.00;19.00
48575;DHT22;34352;51.084;3.712;2022-09-17T19:46:41;13.00;21.90
48575;DHT22;34352;51.084;3.712;2022-09-17T19:52:22;13.00;22.00
48575;DHT22;34352;51.084;3.712;2022-09-17T19:58:11;13.00;24.40
48575;DHT22;34352;51.084;3.712;2022-09-17T20:01:05;13.10;22.00
48575;DHT22;34352;51.084;3.712;2022-09-17T20:03:30;13.10;23.60